sensor_id;sensor_type;location;lat;lon;timestamp;temperature;humidity
62476;DHT22;50739;45.670;11.936;2024-02-14T00:01:10;7.39;87.75
62476;DHT22;50739;45.670;11.936;2024-02-14T00:06:13;7.32;86.88
62476;DHT22;50739;45.670;11.936;2024-02-14T00:11:16;7.27;87.38
62476;DHT22;50739;45.670;11.936;2024-02-14T00:16:19;7.24;87.07
62476;DHT22;50739;45.670;11.936;2024-02-14T00:21:21;7.12;87.22
62476;DHT22;50739;45.670;11.936;2024-02-14T00:26:25;7.15;87.22
62476;DHT22;50739;45.670;11.936;2024-02-14T00:31:28;7.12;87.28
62476;DHT22;50739;45.670;11.936;2024-02-14T00:36:30;7.32;86.30
62476;DHT22;50739;45.670;11.936;2024-02-14T00:41:34;7.29;86.54
62476;DHT22;50739;45.670;11.936;2024-02-14T00:46:36;7.18;86.86
62476;DHT22;50739;45.670;11.936;2024-02-14T00:51:38;7.01;87.04
62476;DHT22;50739;45.670;11.936;2024-02-14T00:56:42;6.90;87.31
62476;DHT22;50739;45.670;11.936;2024-02-14T01:01:45;7.00;86.69
62476;DHT22;50739;45.670;11.936;2024-02-14T01:06:47;7.15;86.34
62476;DHT22;50739;45.670;11.936;2024-02-14T01:11:52;7.07;86.61
62476;DHT22;50739;45.670;11.936;2024-02-14T01:16:54;6.77;87.66
62476;DHT22;50739;45.670;11.936;2024-02-14T01:21:57;6.69;87.47
62476;DHT22;50739;45.670;11.936;2024-02-14T01:27:01;6.93;86.83
62476;DHT22;50739;45.670;11.936;2024-02-14T01:32:04;6.77;87.39
62476;DHT22;50739;45.670;11.936;2024-02-14T01:37:07;6.86;86.58
62476;DHT22;50739;45.670;11.936;2024-02-14T01:42:12;6.90;86.95
62476;DHT22;50739;45.670;11.936;2024-02-14T01:47:14;6.98;87.20
62476;DHT22;50739;45.670;11.936;2024-02-14T01:52:17;6.79;87.74
62476;DHT22;50739;45.670;11.936;2024-02-14T01:57:21;6.73;87.70
62476;DHT22;50739;45.670;11.936;2024-02-14T02:02:25;6.66;87.95
62476;DHT22;50739;45.670;11.936;2024-02-14T02:07:28;6.52;88.75
62476;DHT22;50739;45.670;11.936;2024-02-14T02:12:32;6.65;88.46
62476;DHT22;50739;45.670;11.936;2024-02-14T02:17:34;6.56;88.38
62476;DHT22;50739;45.670;11.936;2024-02-14T02:22:44;6.41;88.67
62476;DHT22;50739;45.670;11.936;2024-02-14T02:27:47;6.53;87.83
62476;DHT22;50739;45.670;11.936;2024-02-14T02:32:50;6.38;87.47
62476;DHT22;50739;45.670;11.936;2024-02-14T02:37:53;6.43;87.65
62476;DHT22;50739;45.670;11.936;2024-02-14T02:42:56;6.14;87.47
62476;DHT22;50739;45.670;11.936;2024-02-14T02:48:00;5.94;89.10
62476;DHT22;50739;45.670;11.936;2024-02-14T02:53:04;6.08;89.12
62476;DHT22;50739;45.670;11.936;2024-02-14T02:58:07;6.14;88.58
62476;DHT22;50739;45.670;11.936;2024-02-14T03:03:09;6.43;87.75
62476;DHT22;50739;45.670;11.936;2024-02-14T03:08:13;6.81;85.80
62476;DHT22;50739;45.670;11.936;2024-02-14T03:13:16;6.69;86.53
62476;DHT22;50739;45.670;11.936;2024-02-14T03:18:18;6.56;86.62
62476;DHT22;50739;45.670;11.936;2024-02-14T03:23:22;6.38;87.16
62476;DHT22;50739;45.670;11.936;2024-02-14T03:28:24;6.29;87.36
62476;DHT22;50739;45.670;11.936;2024-02-14T03:33:28;6.34;87.45
62476;DHT22;50739;45.670;11.936;2024-02-14T03:38:32;6.25;87.66
62476;DHT22;50739;45.670;11.936;2024-02-14T03:43:34;6.32;87.55
62476;DHT22;50739;45.670;11.936;2024-02-14T03:48:37;6.21;87.11
62476;DHT22;50739;45.670;11.936;2024-02-14T03:53:43;6.00;87.98
62476;DHT22;50739;45.670;11.936;2024-02-14T03:58:45;6.08;87.88
62476;DHT22;50739;45.670;11.936;2024-02-14T04:03:48;6.17;87.87
62476;DHT22;50739;45.670;11.936;2024-02-14T04:08:51;6.11;88.01
62476;DHT22;50739;45.670;11.936;2024-02-14T04:13:54;5.96;88.26
62476;DHT22;50739;45.670;11.936;2024-02-14T04:18:56;6.07;87.83
62476;DHT22;50739;45.670;11.936;2024-02-14T04:24:00;6.10;87.75
62476;DHT22;50739;45.670;11.936;2024-02-14T04:29:02;5.87;87.94
62476;DHT22;50739;45.670;11.936;2024-02-14T04:34:05;5.81;87.79
62476;DHT22;50739;45.670;11.936;2024-02-14T04:39:10;5.66;87.80
62476;DHT22;50739;45.670;11.936;2024-02-14T04:44:13;5.78;87.35
62476;DHT22;50739;45.670;11.936;2024-02-14T04:49:15;6.00;87.28
62476;DHT22;50739;45.670;11.936;2024-02-14T04:54:19;5.89;88.15
62476;DHT22;50739;45.670;11.936;2024-02-14T04:59:21;6.03;87.36
62476;DHT22;50739;45.670;11.936;2024-02-14T05:04:23;6.08;87.08
62476;DHT22;50739;45.670;11.936;2024-02-14T05:09:27;6.11;86.62
62476;DHT22;50739;45.670;11.936;2024-02-14T05:14:29;6.05;86.25
62476;DHT22;50739;45.670;11.936;2024-02-14T05:19:32;6.21;85.74
62476;DHT22;50739;45.670;11.936;2024-02-14T05:24:36;6.22;85.38
62476;DHT22;50739;45.670;11.936;2024-02-14T05:29:39;6.22;82.00
62476;DHT22;50739;45.670;11.936;2024-02-14T05:34:41;6.42;80.54
62476;DHT22;50739;45.670;11.936;2024-02-14T05:39:45;6.50;79.71
62476;DHT22;50739;45.670;11.936;2024-02-14T05:44:47;6.63;78.66
62476;DHT22;50739;45.670;11.936;2024-02-14T05:49:50;6.43;79.15
62476;DHT22;50739;45.670;11.936;2024-02-14T05:54:53;6.43;79.45
62476;DHT22;50739;45.670;11.936;2024-02-14T05:59:56;6.43;79.22
62476;DHT22;50739;45.670;11.936;2024-02-14T06:04:58;6.38;79.32
62476;DHT22;50739;45.670;11.936;2024-02-14T06:10:02;6.49;79.40
62476;DHT22;50739;45.670;11.936;2024-02-14T06:15:06;6.48;80.21
62476;DHT22;50739;45.670;11.936;2024-02-14T06:20:09;6.45;80.91
62476;DHT22;50739;45.670;11.936;2024-02-14T06:25:15;6.31;81.94
62476;DHT22;50739;45.670;11.936;2024-02-14T06:30:17;6.32;81.53
62476;DHT22;50739;45.670;11.936;2024-02-14T06:35:20;6.08;83.02
62476;DHT22;50739;45.670;11.936;2024-02-14T06:40:24;5.96;83.77
62476;DHT22;50739;45.670;11.936;2024-02-14T06:45:27;6.13;82.76
62476;DHT22;50739;45.670;11.936;2024-02-14T06:50:30;6.10;82.04
62476;DHT22;50739;45.670;11.936;2024-02-14T06:55:33;6.20;81.70
62476;DHT22;50739;45.670;11.936;2024-02-14T07:00:36;6.39;81.50
62476;DHT22;50739;45.670;11.936;2024-02-14T07:05:38;6.53;80.85
62476;DHT22;50739;45.670;11.936;2024-02-14T07:10:42;6.49;81.28
62476;DHT22;50739;45.670;11.936;2024-02-14T07:15:44;6.57;81.69
62476;DHT22;50739;45.670;11.936;2024-02-14T07:20:46;6.69;81.30
62476;DHT22;50739;45.670;11.936;2024-02-14T07:25:50;6.87;81.11
62476;DHT22;50739;45.670;11.936;2024-02-14T07:30:53;6.98;79.55
62476;DHT22;50739;45.670;11.936;2024-02-14T07:35:55;7.19;78.55
62476;DHT22;50739;45.670;11.936;2024-02-14T07:40:59;7.34;78.17
62476;DHT22;50739;45.670;11.936;2024-02-14T07:46:02;7.54;77.70
62476;DHT22;50739;45.670;11.936;2024-02-14T07:51:07;7.63;77.97
62476;DHT22;50739;45.670;11.936;2024-02-14T07:56:13;7.84;76.22
62476;DHT22;50739;45.670;11.936;2024-02-14T08:01:18;7.89;76.76
62476;DHT22;50739;45.670;11.936;2024-02-14T08:06:21;8.08;76.69
62476;DHT22;50739;45.670;11.936;2024-02-14T08:11:25;8.08;77.08
62476;DHT22;50739;45.670;11.936;2024-02-14T08:16:27;8.18;77.24
62476;DHT22;50739;45.670;11.936;2024-02-14T08:21:30;8.28;77.13
62476;DHT22;50739;45.670;11.936;2024-02-14T08:26:33;8.45;76.89
62476;DHT22;50739;45.670;11.936;2024-02-14T08:31:36;8.70;75.82
62476;DHT22;50739;45.670;11.936;2024-02-14T08:36:38;8.83;75.70
62476;DHT22;50739;45.670;11.936;2024-02-14T08:41:44;8.97;75.39
62476;DHT22;50739;45.670;11.936;2024-02-14T08:46:50;9.08;75.11
62476;DHT22;50739;45.670;11.936;2024-02-14T08:51:54;9.21;75.75
62476;DHT22;50739;45.670;11.936;2024-02-14T08:56:58;9.36;74.71
62476;DHT22;50739;45.670;11.936;2024-02-14T09:02:00;9.36;75.61
62476;DHT22;50739;45.670;11.936;2024-02-14T09:07:03;9.46;74.60
62476;DHT22;50739;45.670;11.936;2024-02-14T09:12:07;9.63;73.03
62476;DHT22;50739;45.670;11.936;2024-02-14T09:17:10;9.72;72.80
62476;DHT22;50739;45.670;11.936;2024-02-14T09:22:12;9.83;72.54
62476;DHT22;50739;45.670;11.936;2024-02-14T09:27:20;9.85;72.93
62476;DHT22;50739;45.670;11.936;2024-02-14T09:32:23;9.99;72.96
62476;DHT22;50739;45.670;11.936;2024-02-14T09:37:25;10.18;72.98
62476;DHT22;50739;45.670;11.936;2024-02-14T09:42:38;10.20;70.47
62476;DHT22;50739;45.670;11.936;2024-02-14T09:47:45;10.27;71.66
62476;DHT22;50739;45.670;11.936;2024-02-14T09:52:47;10.47;70.48
62476;DHT22;50739;45.670;11.936;2024-02-14T09:57:52;10.69;66.02
62476;DHT22;50739;45.670;11.936;2024-02-14T10:02:56;10.80;65.51
62476;DHT22;50739;45.670;11.936;2024-02-14T10:07:58;10.96;65.35
62476;DHT22;50739;45.670;11.936;2024-02-14T10:13:05;11.20;64.34
62476;DHT22;50739;45.670;11.936;2024-02-14T10:18:07;11.24;64.13
62476;DHT22;50739;45.670;11.936;2024-02-14T10:23:12;11.30;64.42
62476;DHT22;50739;45.670;11.936;2024-02-14T10:28:16;11.42;62.31
62476;DHT22;50739;45.670;11.936;2024-02-14T10:33:19;11.57;63.53
62476;DHT22;50739;45.670;11.936;2024-02-14T10:38:22;11.68;64.00
62476;DHT22;50739;45.670;11.936;2024-02-14T10:43:26;11.95;64.28
62476;DHT22;50739;45.670;11.936;2024-02-14T10:48:31;11.87;64.49
62476;DHT22;50739;45.670;11.936;2024-02-14T10:53:39;12.02;62.61
62476;DHT22;50739;45.670;11.936;2024-02-14T10:58:45;12.07;61.19
62476;DHT22;50739;45.670;11.936;2024-02-14T11:03:49;12.29;62.23
62476;DHT22;50739;45.670;11.936;2024-02-14T11:09:00;12.20;62.51
62476;DHT22;50739;45.670;11.936;2024-02-14T11:14:08;12.26;62.33
62476;DHT22;50739;45.670;11.936;2024-02-14T11:19:11;12.43;62.37
62476;DHT22;50739;45.670;11.936;2024-02-14T11:24:15;12.48;62.04
62476;DHT22;50739;45.670;11.936;2024-02-14T11:29:20;12.64;61.13
62476;DHT22;50739;45.670;11.936;2024-02-14T11:34:22;12.68;61.30
62476;DHT22;50739;45.670;11.936;2024-02-14T11:39:25;12.68;62.86
62476;DHT22;50739;45.670;11.936;2024-02-14T11:44:29;12.82;61.73
62476;DHT22;50739;45.670;11.936;2024-02-14T11:49:31;12.96;61.77
62476;DHT22;50739;45.670;11.936;2024-02-14T11:54:34;12.99;61.88
62476;DHT22;50739;45.670;11.936;2024-02-14T11:59:38;13.00;62.43
62476;DHT22;50739;45.670;11.936;2024-02-14T12:04:41;13.00;62.35
62476;DHT22;50739;45.670;11.936;2024-02-14T12:09:43;13.09;63.35
62476;DHT22;50739;45.670;11.936;2024-02-14T12:14:47;13.22;63.54
62476;DHT22;50739;45.670;11.936;2024-02-14T12:19:50;13.22;64.30
62476;DHT22;50739;45.670;11.936;2024-02-14T12:24:56;13.24;64.66
62476;DHT22;50739;45.670;11.936;2024-02-14T12:30:03;13.19;63.18
62476;DHT22;50739;45.670;11.936;2024-02-14T12:35:07;13.27;64.34
62476;DHT22;50739;45.670;11.936;2024-02-14T12:40:10;13.26;63.78
62476;DHT22;50739;45.670;11.936;2024-02-14T12:45:13;13.33;65.23
62476;DHT22;50739;45.670;11.936;2024-02-14T12:50:17;13.64;63.99
62476;DHT22;50739;45.670;11.936;2024-02-14T12:55:21;13.64;64.32
62476;DHT22;50739;45.670;11.936;2024-02-14T13:00:28;13.77;63.72
62476;DHT22;50739;45.670;11.936;2024-02-14T13:05:32;14.10;63.00
62476;DHT22;50739;45.670;11.936;2024-02-14T13:10:35;14.47;61.90
62476;DHT22;50739;45.670;11.936;2024-02-14T13:15:39;15.06;59.57
62476;DHT22;50739;45.670;11.936;2024-02-14T13:20:43;15.97;58.43
62476;DHT22;50739;45.670;11.936;2024-02-14T13:25:46;16.45;57.34
62476;DHT22;50739;45.670;11.936;2024-02-14T13:30:51;17.29;55.56
62476;DHT22;50739;45.670;11.936;2024-02-14T13:35:53;17.38;54.93
62476;DHT22;50739;45.670;11.936;2024-02-14T13:40:56;18.12;53.64
62476;DHT22;50739;45.670;11.936;2024-02-14T13:45:59;18.05;52.62
62476;DHT22;50739;45.670;11.936;2024-02-14T13:51:02;17.73;53.84
62476;DHT22;50739;45.670;11.936;2024-02-14T13:56:05;17.49;55.02
62476;DHT22;50739;45.670;11.936;2024-02-14T14:01:09;17.34;55.78
62476;DHT22;50739;45.670;11.936;2024-02-14T14:06:12;17.66;54.42
62476;DHT22;50739;45.670;11.936;2024-02-14T14:11:14;18.17;52.36
62476;DHT22;50739;45.670;11.936;2024-02-14T14:16:18;18.11;52.85
62476;DHT22;50739;45.670;11.936;2024-02-14T14:21:22;18.89;51.19
62476;DHT22;50739;45.670;11.936;2024-02-14T14:26:24;17.49;54.03
62476;DHT22;50739;45.670;11.936;2024-02-14T14:31:28;18.56;51.36
62476;DHT22;50739;45.670;11.936;2024-02-14T14:36:31;18.86;50.95
62476;DHT22;50739;45.670;11.936;2024-02-14T14:41:34;17.98;52.37
62476;DHT22;50739;45.670;11.936;2024-02-14T14:46:37;18.37;52.89
62476;DHT22;50739;45.670;11.936;2024-02-14T14:51:42;17.79;53.90
62476;DHT22;50739;45.670;11.936;2024-02-14T14:56:45;18.02;52.95
62476;DHT22;50739;45.670;11.936;2024-02-14T15:01:49;18.14;53.09
62476;DHT22;50739;45.670;11.936;2024-02-14T16:34:03;12.74;71.27
62476;DHT22;50739;45.670;11.936;2024-02-14T16:39:05;12.52;73.45
62476;DHT22;50739;45.670;11.936;2024-02-14T16:44:09;12.44;73.63
62476;DHT22;50739;45.670;11.936;2024-02-14T16:49:13;12.09;74.88
62476;DHT22;50739;45.670;11.936;2024-02-14T16:54:17;11.81;75.65
62476;DHT22;50739;45.670;11.936;2024-02-14T16:59:19;11.86;76.21
62476;DHT22;50739;45.670;11.936;2024-02-14T17:04:26;11.64;76.95
62476;DHT22;50739;45.670;11.936;2024-02-14T17:09:28;11.65;77.13
62476;DHT22;50739;45.670;11.936;2024-02-14T17:14:31;11.09;78.14
62476;DHT22;50739;45.670;11.936;2024-02-14T17:19:35;11.17;78.27
62476;DHT22;50739;45.670;11.936;2024-02-14T17:24:37;11.10;78.33
62476;DHT22;50739;45.670;11.936;2024-02-14T17:29:41;11.03;79.63
62476;DHT22;50739;45.670;11.936;2024-02-14T17:34:45;11.06;79.14
62476;DHT22;50739;45.670;11.936;2024-02-14T17:39:47;10.97;78.93
62476;DHT22;50739;45.670;11.936;2024-02-14T17:44:50;10.79;79.68
62476;DHT22;50739;45.670;11.936;2024-02-14T17:49:53;10.76;80.25
62476;DHT22;50739;45.670;11.936;2024-02-14T17:54:56;10.75;80.71
62476;DHT22;50739;45.670;11.936;2024-02-14T17:59:59;10.48;80.83
62476;DHT22;50739;45.670;11.936;2024-02-14T18:05:04;10.41;81.99
62476;DHT22;50739;45.670;11.936;2024-02-14T18:10:06;10.42;81.74
62476;DHT22;50739;45.670;11.936;2024-02-14T18:15:09;10.40;81.95
62476;DHT22;50739;45.670;11.936;2024-02-14T18:20:14;10.28;81.72
62476;DHT22;50739;45.670;11.936;2024-02-14T18:25:17;10.20;81.81
62476;DHT22;50739;45.670;11.936;2024-02-14T18:30:19;10.17;82.32
62476;DHT22;50739;45.670;11.936;2024-02-14T18:35:24;10.27;80.89
62476;DHT22;50739;45.670;11.936;2024-02-14T18:40:29;10.01;81.99
62476;DHT22;50739;45.670;11.936;2024-02-14T18:45:31;10.01;82.04
62476;DHT22;50739;45.670;11.936;2024-02-14T18:50:35;10.21;81.37
62476;DHT22;50739;45.670;11.936;2024-02-14T18:55:40;10.01;82.71
62476;DHT22;50739;45.670;11.936;2024-02-14T19:00:42;9.79;83.50
62476;DHT22;50739;45.670;11.936;2024-02-14T19:05:47;10.14;81.66
62476;DHT22;50739;45.670;11.936;2024-02-14T19:10:49;9.97;82.73
62476;DHT22;50739;45.670;11.936;2024-02-14T19:15:54;9.62;83.71
62476;DHT22;50739;45.670;11.936;2024-02-14T19:20:58;9.65;83.77
62476;DHT22;50739;45.670;11.936;2024-02-14T19:26:01;9.63;83.76
62476;DHT22;50739;45.670;11.936;2024-02-14T19:31:04;9.51;83.82
62476;DHT22;50739;45.670;11.936;2024-02-14T19:36:08;9.38;84.70
62476;DHT22;50739;45.670;11.936;2024-02-14T19:41:11;9.32;84.82
62476;DHT22;50739;45.670;11.936;2024-02-14T19:46:13;9.04;85.17
62476;DHT22;50739;45.670;11.936;2024-02-14T19:51:17;8.87;85.87
62476;DHT22;50739;45.670;11.936;2024-02-14T19:56:19;8.94;85.80
62476;DHT22;50739;45.670;11.936;2024-02-14T20:01:22;8.99;85.53
62476;DHT22;50739;45.670;11.936;2024-02-14T20:06:26;8.87;85.84
62476;DHT22;50739;45.670;11.936;2024-02-14T20:11:30;8.83;86.26
62476;DHT22;50739;45.670;11.936;2024-02-14T20:16:32;8.65;86.45
62476;DHT22;50739;45.670;11.936;2024-02-14T20:21:36;8.63;86.35
62476;DHT22;50739;45.670;11.936;2024-02-14T20:26:38;8.87;86.06
62476;DHT22;50739;45.670;11.936;2024-02-14T20:31:43;8.58;86.76
62476;DHT22;50739;45.670;11.936;2024-02-14T20:36:47;8.75;86.08
62476;DHT22;50739;45.670;11.936;2024-02-14T20:41:49;8.69;86.38
62476;DHT22;50739;45.670;11.936;2024-02-14T20:46:52;8.32;86.95
62476;DHT22;50739;45.670;11.936;2024-02-14T20:51:55;8.15;87.34
62476;DHT22;50739;45.670;11.936;2024-02-14T20:56:58;8.34;87.20
62476;DHT22;50739;45.670;11.936;2024-02-14T21:02:00;8.44;86.36
62476;DHT22;50739;45.670;11.936;2024-02-14T21:07:04;8.11;86.80
62476;DHT22;50739;45.670;11.936;2024-02-14T21:12:07;8.17;86.95
62476;DHT22;50739;45.670;11.936;2024-02-14T21:17:09;7.83;87.11
62476;DHT22;50739;45.670;11.936;2024-02-14T21:22:13;7.89;87.24
62476;DHT22;50739;45.670;11.936;2024-02-14T21:27:15;7.91;87.63
62476;DHT22;50739;45.670;11.936;2024-02-14T21:32:17;7.93;87.02
62476;DHT22;50739;45.670;11.936;2024-02-14T21:37:21;8.00;86.86
62476;DHT22;50739;45.670;11.936;2024-02-14T21:42:23;7.93;87.16
62476;DHT22;50739;45.670;11.936;2024-02-14T21:47:26;7.83;86.78
62476;DHT22;50739;45.670;11.936;2024-02-14T21:52:30;7.56;87.86
62476;DHT22;50739;45.670;11.936;2024-02-14T21:57:32;7.63;87.91
62476;DHT22;50739;45.670;11.936;2024-02-14T22:02:35;7.80;87.66
62476;DHT22;50739;45.670;11.936;2024-02-14T22:07:38;7.89;86.80
62476;DHT22;50739;45.670;11.936;2024-02-14T22:12:41;7.70;87.01
62476;DHT22;50739;45.670;11.936;2024-02-14T22:17:43;7.38;87.88
62476;DHT22;50739;45.670;11.936;2024-02-14T22:22:47;7.67;87.12
62476;DHT22;50739;45.670;11.936;2024-02-14T22:27:49;7.67;86.54
62476;DHT22;50739;45.670;11.936;2024-02-14T22:32:53;7.27;88.39
62476;DHT22;50739;45.670;11.936;2024-02-14T22:37:56;7.39;87.61
62476;DHT22;50739;45.670;11.936;2024-02-14T22:42:59;7.10;88.17
62476;DHT22;50739;45.670;11.936;2024-02-14T22:48:01;7.27;88.21
62476;DHT22;50739;45.670;11.936;2024-02-14T22:53:05;7.28;88.06
62476;DHT22;50739;45.670;11.936;2024-02-14T22:58:08;7.21;88.04
62476;DHT22;50739;45.670;11.936;2024-02-14T23:03:10;7.36;87.46
62476;DHT22;50739;45.670;11.936;2024-02-14T23:08:19;7.29;87.81
62476;DHT22;50739;45.670;11.936;2024-02-14T23:13:21;6.93;88.78
62476;DHT22;50739;45.670;11.936;2024-02-14T23:18:24;7.08;88.15
62476;DHT22;50739;45.670;11.936;2024-02-14T23:23:30;6.96;88.26
62476;DHT22;50739;45.670;11.936;2024-02-14T23:28:47;7.25;86.90
62476;DHT22;50739;45.670;11.936;2024-02-14T23:33:49;7.21;87.53
62476;DHT22;50739;45.670;11.936;2024-02-14T23:38:53;7.25;86.80
62476;DHT22;50739;45.670;11.936;2024-02-14T23:43:55;7.08;86.70
62476;DHT22;50739;45.670;11.936;2024-02-14T23:48:59;7.19;86.24
62476;DHT22;50739;45.670;11.936;2024-02-14T23:54:04;6.66;88.26
62476;DHT22;50739;45.670;11.936;2024-02-14T23:59:07;6.84;87.46
